Etusivu
METAR-TAF:

METAR-TAF

Lentoasemat :

Crestview, Florida, Yhdysvallat

Leveyspiiri: 30-46-20N, Pituuspiiri: 086-31-12W, korkeus merenpinnasta: 65 m

Tämänhetkinen sää

Tämä raportti tehtiin 33 minuuttia sitten, kello 07.53 UTC
Tuuli 5 kn lännestä
Lämpötila 23°C
Kosteus 94%
Ilmanpaine 1012 hPa
Näkyvyys: 16.1 km
selkeää

METAR: KCEW 130753Z AUTO 28005KT 10SM CLR 23/22 A2988 RMK AO2 SLP113 T02280217

Aika: 03:26 (08:26 UTC)


TAF: puuttuu

Säähavainnot ja -ennusteet yli 4000 lentoasemalta (METAR- ja TAF-raportit).

Käytössä olevat sääasemat on merkitty karttaan keltaisilla ja punaisilla pisteillä.

Aseta hiiri pisteen päälle nähdäksesi sääaseman nimen.

Klikkaa sitten nähdäksesi säähavainnot ja -ennusteet.

Kartan vaihtaminen: klikkaa mustalla rastilla varustettuja vihreitä pisteitä, niin voit zoomata sisään; viivalla varustettua vihreää pistettä, niin voit zoomata ulos tai vihreitä nuolia, niin pääset viereisille kartoille.


METAR-TAF: